King Philip — WDG3768 — position and weather

sailwx.info

Track history (hours):
 
Tides and Currents Weather Stations Pressure Air Temp Water Temp Dewpoint Dewpoint Depression Visibility Wind Speed Wind Dir Waves Ship Positions

King Philip

Owner: King Philip Inc., Salinas, CA. More information available from US FCC via Universal Licensing System and Coast Guard Vessel Documentation Center.

Last reported at 2018-Jul-30 00:00 UTC. Time now 2018-Aug-16 08:01 UTC.
Position N 37°23' W 122°26'.
Warning: this ship's position is 17 days out of date.

Length 26 m.

Type: Fishing. MMSI: 367529450.

Date/timePositionNaut miles runAvg speedWind from/ knotsBaromVisibWave heightAir tempDewpointWater temp
2018-Jul-30 00:00N 37°23' W 122°26'1 2.4
2018-Jul-29 23:27N 37°22' W 122°28'0 0.6
2018-Jul-29 23:00N 37°22' W 122°27'0 0.4
2018-Jul-29 22:30N 37°22' W 122°28'1 1.4
2018-Jul-29 22:00N 37°23' W 122°27'0 0.3
2018-Jul-29 21:26N 37°23' W 122°27'0 0.1
2018-Jul-29 21:00N 37°23' W 122°27'0 0.4
2018-Jul-29 20:30N 37°23' W 122°28'0 1.0
2018-Jul-29 20:00N 37°23' W 122°27'1 1.6
2018-Jul-29 19:25N 37°22' W 122°27'  
2018-Jul-23 02:25N 37°05' W 122°20'8 9.1
2018-Jul-23 01:35N 37°11' W 122°25'10 1.5
2018-Jul-22 19:05N 37°21' W 122°27'0 3.1
2018-Jul-22 18:59N 37°21' W 122°27'4 7.8
2018-Jul-22 18:27N 37°17' W 122°27'21 8.6
2018-Jul-22 16:03N 36°59' W 122°13'0 9.0
2018-Jul-22 16:00N 36°59' W 122°12'  
Track history (hours):
 
Tides and Currents Weather Stations Pressure Air Temp Water Temp Dewpoint Dewpoint Depression Visibility Wind Speed Wind Dir Waves Ship Positions

King Philip

Owner: King Philip Inc., Salinas, CA. More information available from US FCC via Universal Licensing System and Coast Guard Vessel Documentation Center.

Last reported at 2018-Jul-30 00:00 UTC. Time now 2018-Aug-16 08:01 UTC.
Position N 37°23' W 122°26'.
Warning: this ship's position is 17 days out of date.

Length 26 m.

Type: Fishing. MMSI: 367529450.

Date/timePositionNaut miles runAvg speedWind from/ knotsBaromVisibWave heightAir tempDewpointWater temp
2018-Jul-30 00:00N 37°23' W 122°26'1 2.4
2018-Jul-29 23:27N 37°22' W 122°28'0 0.6
2018-Jul-29 23:00N 37°22' W 122°27'0 0.4
2018-Jul-29 22:30N 37°22' W 122°28'1 1.4
2018-Jul-29 22:00N 37°23' W 122°27'0 0.3
2018-Jul-29 21:26N 37°23' W 122°27'0 0.1
2018-Jul-29 21:00N 37°23' W 122°27'0 0.4
2018-Jul-29 20:30N 37°23' W 122°28'0 1.0
2018-Jul-29 20:00N 37°23' W 122°27'1 1.6
2018-Jul-29 19:25N 37°22' W 122°27'  
2018-Jul-23 02:25N 37°05' W 122°20'8 9.1
2018-Jul-23 01:35N 37°11' W 122°25'10 1.5
2018-Jul-22 19:05N 37°21' W 122°27'0 3.1
2018-Jul-22 18:59N 37°21' W 122°27'4 7.8
2018-Jul-22 18:27N 37°17' W 122°27'21 8.6
2018-Jul-22 16:03N 36°59' W 122°13'0 9.0
2018-Jul-22 16:00N 36°59' W 122°12'  

Dump ship's entire track history